MDT,Max TemperatureF,Mean TemperatureF,Min TemperatureF,Max Dew PointF,MeanDew PointF,Min DewpointF,Max Humidity, Mean Humidity, Min Humidity, Max Sea Level PressureIn, Mean Sea Level PressureIn, Min Sea Level PressureIn, Max VisibilityMiles, Mean VisibilityMiles, Min VisibilityMiles, Max Wind SpeedMPH, Mean Wind SpeedMPH, Max Gust SpeedMPH,PrecipitationIn, CloudCover, Events, WindDirDegrees
2011-10-1,77,61,45,50,40,35,71,49,27,29.93,29.87,29.82,10,10,10,21,6,25,T,1,Rain,143
2011-10-2,79,65,50,49,43,37,83,53,23,30.01,29.93,29.86,10,10,10,14,4,32,0.00,0,,346
2011-10-3,76,59,42,44,39,37,82,54,25,29.98,29.85,29.70,10,10,9,25,4,35,T,1,,70
2011-10-4,63,57,51,51,46,42,86,69,51,29.78,29.70,29.63,10,10,7,16,7,21,0.03,6,Rain,127
2011-10-5,59,54,49,50,47,44,93,78,62,29.61,29.50,29.40,10,8,1,18,6,21,0.55,7,Rain,299
2011-10-6,50,47,43,47,43,39,93,85,76,29.84,29.66,29.49,10,8,2,13,5,16,0.27,8,Rain,298
2011-10-7,48,46,44,43,41,39,92,82,71,30.15,29.94,29.82,10,10,4,13,3,16,0.26,8,Rain,311
2011-10-8,57,48,38,43,39,33,100,72,43,30.34,30.25,30.16,10,6,0,7,2,9,0.00,5,Fog,295
2011-10-9,61,45,28,39,33,27,100,70,40,30.24,30.13,29.93,10,7,0,6,1,7,0.00,2,Fog,280
2011-10-10,55,45,34,43,37,32,92,72,51,29.95,29.82,29.70,10,10,8,14,5,17,0.01,6,,148
2011-10-11,56,51,45,45,40,35,93,72,51,30.06,29.84,29.72,10,10,5,23,6,26,0.12,7,Rain,181
2011-10-12,52,47,41,38,37,36,82,68,54,30.22,30.17,30.09,10,10,7,14,4,18,0.01,7,Rain,197
2011-10-13,57,49,41,39,35,28,89,62,35,30.21,30.15,30.09,10,10,10,15,4,16,0.00,3,,311
2011-10-14,48,45,42,43,39,35,89,80,70,30.12,30.06,29.96,10,9,6,9,2,13,0.09,8,Rain,279
2011-10-15,54,45,36,43,39,35,92,76,59,30.16,30.05,29.93,10,9,4,14,5,17,0.34,7,Rain,338
2011-10-16,48,42,35,40,37,34,100,86,71,30.29,30.11,30.05,10,8,0,12,2,14,0.15,6,Fog-Rain,325
2011-10-17,52,44,35,38,36,32,100,75,50,30.51,30.38,30.24,10,6,0,7,2,,0.00,6,Fog,6
2011-10-18,53,40,27,36,31,25,100,73,46,30.58,30.47,30.26,10,5,0,5,1,7,0.00,3,Fog,260
2011-10-19,50,38,26,37,31,25,92,77,61,30.23,30.11,30.04,10,6,0,6,1,7,0.00,2,Fog,123
2011-10-20,55,43,30,45,35,28,96,78,59,30.16,30.10,30.05,10,7,0,6,1,7,0.02,5,Fog-Rain,247
2011-10-21,53,49,44,46,44,43,93,82,71,30.24,30.20,30.13,10,8,3,8,1,13,0.14,8,Rain,151
2011-10-22,60,54,47,45,43,41,87,80,71,30.21,30.20,30.18,10,10,10,23,4,28,0.01,8,Rain,129
2011-10-23,59,52,45,45,41,39,82,69,55,30.11,30.07,30.02,10,10,10,13,2,23,0.06,3,Rain,334
2011-10-24,52,44,36,43,35,25,92,66,39,30.27,30.07,29.95,10,10,4,22,7,29,0.18,7,Rain,254
2011-10-25,46,37,28,30,27,24,85,69,53,30.47,30.38,30.22,10,10,10,18,3,23,T,3,,10
2011-10-26,46,34,21,28,24,19,92,67,41,30.50,30.37,30.21,10,9,1,7,1,8,0.00,3,,300
2011-10-27,50,40,29,30,26,21,82,58,34,30.34,30.24,30.12,10,10,10,21,6,24,T,6,,308
2011-10-28,48,36,23,29,24,19,92,71,49,30.36,30.22,30.00,10,10,9,15,2,23,0.00,1,,295
2011-10-29,52,42,31,37,30,25,82,59,36,30.31,30.15,29.95,10,10,10,25,8,33,0.02,4,Rain,310
2011-10-30,56,41,25,43,31,23,92,67,41,30.36,30.21,30.02,10,10,6,10,2,12,0.03,3,Rain,232
2011-10-31,52,42,32,44,32,23,80,57,33,30.25,30.08,29.92,10,10,5,33,10,45,0.12,6,Rain,273